GCLA Airport Information

Runway Information
Runway 01 Length 7218 ft width 148 ft
Elevation 103 ft Threshold 0 ft Heading 359
Runway 19 Length 7218 ft Width 148 ft
Elevation 65 ft Threshold 0 ft Heading 179
Airport Frequencies
Type APP Name CANARIAS A Frequency 126.1 MHZ
Type ATIS Name INFO Frequency 118.6 MHZ
Type GND Name GND Frequency 121.8 MHZ
Type TWR Name TWR Frequency 118.9 MHZ
Airport Navaids
Type DME Name La Palma Frequency 112400 KHZ
Type NDB Name La Palma Frequency 389 KHZ
Airport Weather Information & NOTAM
ADDS - METARS form results

(0852 UTC 19 September 2018)
Data provider http://aviationweather.gov/metar/data/
 
METAR text: GCLA 190830Z 04009KT 010V070 9999 FEW030 24/19 Q1018
Conditions at: GCLA (LA PALMA AIRPORT, ES) observed 0830 UTC 19 September 2018
Temperature: 24.0°C (75°F)
Dewpoint: 19.0°C (66°F) [RH = 74%]
Pressure (altimeter): 30.06 inches Hg (1018.0 mb)
Winds: from the NE (40 degrees) at 10 MPH (9 knots; 4.6 m/s)
Visibility: 6 or more miles (10+ km)
Ceiling: at least 12,000 feet AGL
Clouds: few clouds at 3000 feet AGL
Weather: no significant weather observed at this time

METAR text: GCLA 190800Z 36005KT 300V040 9999 FEW030 24/17 Q1018
Conditions at: GCLA (LA PALMA AIRPORT, ES) observed 0800 UTC 19 September 2018
Temperature: 24.0°C (75°F)
Dewpoint: 17.0°C (63°F) [RH = 65%]
Pressure (altimeter): 30.06 inches Hg (1018.0 mb)
Winds: from the N (360 degrees) at 6 MPH (5 knots; 2.6 m/s)
Visibility: 6 or more miles (10+ km)
Ceiling: at least 12,000 feet AGL
Clouds: few clouds at 3000 feet AGL
Weather: no significant weather observed at this time

Forecast for: GCLA (LA PALMA AIRPORT, ES)
Text: TAF GCLA 190800Z 1909/2009 03010KT 9999 SCT030 TX27/1914Z TN24/2005Z
Forecast period: 0900 to 2000 UTC 19 September 2018
Forecast type: FROM: standard forecast or significant change
Winds: from the NNE (30 degrees) at 12 MPH (10 knots; 5.1 m/s)
Visibility: 6 or more miles 10+ km)
Ceiling: at least 12,000 feet AGL
Clouds: scattered clouds at 3000 feet AGL
Weather: no significant weather forecast for this period
Text: PROB30
Forecast period: 0900 to 1000 UTC 19 September 2018
Forecast type: TEMPORARY: The following changes expected for less than half the time period
Winds: from the NNW (330 degrees) at 8 MPH (7 knots; 3.6 m/s)
Visibility: missing
Ceiling: unknown
Clouds: missing
Weather: no significant weather forecast for this period
Text: TEMPO 1909/1910 33007KT
Forecast period: 2000 UTC 19 September 2018 to 0900 UTC 20 September 2018
Forecast type: BECOMING: Conditions expected to become as follows by 2200 UTC 19 September 2018
Winds: from the NNW (330 degrees) at 9 MPH (8 knots; 4.1 m/s)
Visibility: 6 or more miles 10+ km)
Ceiling: at least 12,000 feet AGL
Clouds: scattered clouds at 3000 feet AGL
Weather: no significant weather forecast for this period